Time;durP1;ratioP1;P1;durP2;ratioP2;P2;SDS_P1;SDS_P2;PMS_P1;PMS_P2;Temp;Humidity;BMP_temperature;BMP_pressure;BME280_temperature;BME280_humidity;BME280_pressure;Samples;Min_cycle;Max_cycle;Signal;HPM_P1;HPM_P2
2022/05/25 00:04:27;;;;;;;1.50;0.90;;;14.60;99.90;;;;;;10475628;28;20208;-70
2022/05/25 00:09:28;;;;;;;2.53;1.37;;;14.60;99.90;;;;;;10461814;28;20216;-71
2022/05/25 00:14:28;;;;;;;3.77;1.00;;;14.60;99.90;;;;;;10475947;28;20225;-70
2022/05/25 00:24:48;;;;;;;2.10;1.37;;;14.50;99.90;;;;;;10461017;28;20784;-72
2022/05/25 00:29:49;;;;;;;1.70;1.33;;;14.50;99.90;;;;;;10468897;28;20269;-71
2022/05/25 00:34:50;;;;;;;1.30;1.20;;;14.40;99.90;;;;;;10466995;28;20224;-71
2022/05/25 00:39:50;;;;;;;3.63;0.97;;;14.40;99.90;;;;;;10475877;28;20225;-71
2022/05/25 00:44:51;;;;;;;2.70;0.90;;;14.50;99.90;;;;;;10468981;28;20221;-70
2022/05/25 00:49:52;;;;;;;3.70;1.30;;;14.50;99.90;;;;;;10471115;28;20251;-70
2022/05/25 00:54:58;;;;;;;1.77;1.13;;;14.50;99.90;;;;;;10471361;28;20211;-71
2022/05/25 01:00:11;;;;;;;3.57;1.20;;;14.50;99.90;;;;;;10475123;28;20277;-72
2022/05/25 01:05:14;;;;;;;1.10;0.87;;;14.50;99.90;;;;;;10480278;28;20302;-71
2022/05/25 01:10:33;;;;;;;1.30;0.93;;;14.50;99.90;;;;;;10471944;28;20283;-70
2022/05/25 01:15:59;;;;;;;1.90;1.30;;;14.30;99.90;;;;;;10469273;28;20217;-71
2022/05/25 01:21:12;;;;;;;3.03;1.00;;;14.20;99.90;;;;;;10459538;28;20220;-70
2022/05/25 01:26:13;;;;;;;2.23;1.30;;;14.20;99.90;;;;;;10486666;28;20219;-71
2022/05/25 01:31:29;;;;;;;3.37;0.97;;;14.10;99.90;;;;;;10469796;28;20216;-72
2022/05/25 01:36:37;;;;;;;2.07;1.10;;;14.20;99.90;;;;;;10468222;28;20236;-71
2022/05/25 01:42:12;;;;;;;1.07;0.90;;;14.10;99.90;;;;;;10466535;28;20221;-71
2022/05/25 01:47:13;;;;;;;1.47;1.10;;;13.90;99.90;;;;;;10464816;28;20310;-72
2022/05/25 01:52:19;;;;;;;1.33;1.23;;;14.00;99.90;;;;;;10466822;28;20308;-70
2022/05/25 01:57:25;;;;;;;1.27;1.10;;;13.80;99.90;;;;;;10474292;28;20238;-70
2022/05/25 02:07:55;;;;;;;0.93;0.93;;;13.60;99.90;;;;;;10473336;28;20306;-72
2022/05/25 02:13:08;;;;;;;1.67;0.80;;;13.50;99.90;;;;;;10480624;28;20227;-71
2022/05/25 02:18:11;;;;;;;1.50;1.00;;;13.30;99.90;;;;;;10474693;28;20292;-71
2022/05/25 02:23:21;;;;;;;2.00;1.13;;;13.30;99.90;;;;;;10477904;28;20220;-71
2022/05/25 02:28:43;;;;;;;1.10;0.80;;;13.20;99.90;;;;;;10477694;28;20219;-70
2022/05/25 02:33:48;;;;;;;3.00;0.90;;;13.20;99.90;;;;;;10466158;28;20243;-71
2022/05/25 02:38:49;;;;;;;1.20;1.00;;;13.10;99.90;;;;;;10465514;28;20228;-71
2022/05/25 02:43:49;;;;;;;4.13;1.23;;;13.10;99.90;;;;;;10480248;28;20215;-71
2022/05/25 02:48:50;;;;;;;3.80;1.20;;;13.00;99.90;;;;;;10464116;28;20223;-71
2022/05/25 02:53:50;;;;;;;2.30;1.13;;;13.00;99.90;;;;;;10480692;28;20227;-71
2022/05/25 02:58:51;;;;;;;2.13;1.10;;;13.00;99.90;;;;;;10471357;28;20597;-71
2022/05/25 03:03:52;;;;;;;1.90;1.10;;;12.90;99.90;;;;;;10478180;28;20221;-71
2022/05/25 03:08:53;;;;;;;2.57;1.27;;;12.90;99.90;;;;;;10471922;28;20278;-71
2022/05/25 03:13:54;;;;;;;2.00;1.37;;;12.80;99.90;;;;;;10476888;28;20306;-72
2022/05/25 03:18:55;;;;;;;3.27;1.50;;;12.70;99.90;;;;;;10470244;28;20300;-71
2022/05/25 03:23:56;;;;;;;2.47;1.20;;;12.60;99.90;;;;;;10471730;28;20764;-70
2022/05/25 03:28:56;;;;;;;3.23;1.50;;;12.50;99.90;;;;;;10470616;28;20211;-71
2022/05/25 03:33:57;;;;;;;2.20;1.60;;;12.50;99.90;;;;;;10471127;28;20216;-71
2022/05/25 03:38:57;;;;;;;2.27;1.80;;;12.40;99.90;;;;;;10475196;28;20284;-70
2022/05/25 03:43:58;;;;;;;2.00;1.30;;;12.40;99.90;;;;;;10471966;28;20696;-70
2022/05/25 03:48:59;;;;;;;1.17;0.97;;;12.20;99.90;;;;;;10474444;28;20234;-71
2022/05/25 03:54:03;;;;;;;2.03;1.60;;;12.10;99.90;;;;;;10464732;28;20216;-71
2022/05/25 03:59:04;;;;;;;5.27;1.43;;;12.10;99.90;;;;;;10468147;28;20694;-71
2022/05/25 04:04:05;;;;;;;2.17;1.50;;;12.20;99.90;;;;;;10470603;28;20227;-71
2022/05/25 04:09:06;;;;;;;2.33;1.90;;;12.30;99.90;;;;;;10472541;28;20292;-70
2022/05/25 04:14:15;;;;;;;2.10;1.60;;;12.40;99.90;;;;;;10470632;28;20439;-69
2022/05/25 04:19:16;;;;;;;2.43;1.80;;;12.50;99.90;;;;;;10471552;28;20555;-71
2022/05/25 04:24:17;;;;;;;3.23;1.90;;;12.60;99.90;;;;;;10470765;28;20565;-70
2022/05/25 04:29:17;;;;;;;4.50;1.70;;;12.70;99.90;;;;;;10471376;28;20223;-72
2022/05/25 04:34:21;;;;;;;4.07;1.67;;;12.80;99.90;;;;;;10469884;28;20223;-71
2022/05/25 04:39:22;;;;;;;3.37;1.50;;;12.90;99.90;;;;;;10466782;28;20699;-72
2022/05/25 04:44:22;;;;;;;3.47;1.60;;;13.50;99.90;;;;;;10472591;28;20302;-71
2022/05/25 04:49:25;;;;;;;3.80;1.73;;;14.10;99.90;;;;;;10484141;28;20277;-69
2022/05/25 04:54:26;;;;;;;3.33;1.80;;;14.30;99.90;;;;;;10472799;28;20299;-70
2022/05/25 04:59:26;;;;;;;5.60;1.60;;;15.20;99.90;;;;;;10463846;28;20227;-70
2022/05/25 05:04:27;;;;;;;3.13;1.63;;;18.10;99.90;;;;;;10471526;28;20226;-68
2022/05/25 05:09:34;;;;;;;7.33;2.47;;;19.10;99.90;;;;;;10468337;28;20212;-68
2022/05/25 05:14:37;;;;;;;2.03;1.60;;;19.30;99.90;;;;;;10472695;28;20314;-69
2022/05/25 05:19:37;;;;;;;4.17;1.90;;;18.10;99.90;;;;;;10465842;28;20250;-69
2022/05/25 05:24:38;;;;;;;5.10;1.70;;;17.30;99.90;;;;;;10473721;28;20246;-69
2022/05/25 05:29:38;;;;;;;3.27;1.87;;;16.80;99.90;;;;;;10460678;28;20608;-69
2022/05/25 05:34:39;;;;;;;4.23;2.00;;;19.20;99.90;;;;;;10466499;28;20265;-69
2022/05/25 05:39:44;;;;;;;5.73;2.60;;;22.50;98.80;;;;;;10470285;28;20231;-69
2022/05/25 05:44:50;;;;;;;2.20;1.60;;;24.70;88.80;;;;;;10464887;28;20240;-70
2022/05/25 05:49:52;;;;;;;4.37;2.00;;;26.80;72.40;;;;;;10449476;28;20228;-71
2022/05/25 05:54:52;;;;;;;3.27;2.10;;;28.00;60.50;;;;;;10471514;28;20215;-71
2022/05/25 05:59:53;;;;;;;5.20;2.23;;;29.00;55.80;;;;;;10464273;28;20219;-71
2022/05/25 06:04:54;;;;;;;2.63;1.67;;;29.50;52.80;;;;;;10471256;28;20958;-70
2022/05/25 06:09:55;;;;;;;3.13;2.23;;;30.20;50.60;;;;;;10463687;28;20219;-70
2022/05/25 06:14:56;;;;;;;4.07;2.03;;;30.30;49.00;;;;;;10470081;28;20215;-71
2022/05/25 06:19:57;;;;;;;4.10;1.60;;;30.50;48.00;;;;;;10464942;28;20238;-69
2022/05/25 06:24:58;;;;;;;3.57;1.70;;;31.10;45.60;;;;;;10463126;28;20716;-70
2022/05/25 06:29:59;;;;;;;2.37;1.40;;;31.10;45.80;;;;;;10463498;28;20210;-71
2022/05/25 06:34:59;;;;;;;5.23;1.37;;;31.80;43.90;;;;;;10470713;28;20704;-70
2022/05/25 06:40:01;;;;;;;4.43;1.13;;;32.30;41.90;;;;;;10464828;28;20512;-71
2022/05/25 06:45:01;;;;;;;2.37;1.40;;;33.00;40.30;;;;;;10473384;28;20251;-70
2022/05/25 06:50:02;;;;;;;3.27;1.63;;;32.40;40.50;;;;;;10465538;28;20239;-70
2022/05/25 06:55:04;;;;;;;3.17;1.47;;;33.20;39.60;;;;;;10466517;28;20699;-72
2022/05/25 07:00:05;;;;;;;4.17;1.33;;;33.70;38.60;;;;;;10475649;28;20230;-70
2022/05/25 07:05:06;;;;;;;2.77;1.83;;;33.70;38.20;;;;;;10473946;28;20253;-69
2022/05/25 07:10:07;;;;;;;3.70;1.00;;;33.90;38.30;;;;;;10475887;28;20270;-70
2022/05/25 07:15:08;;;;;;;3.47;1.50;;;34.40;36.40;;;;;;10471147;28;20176;-71
2022/05/25 07:20:09;;;;;;;2.77;1.03;;;34.20;36.20;;;;;;10475378;28;20255;-70
2022/05/25 07:25:10;;;;;;;3.73;1.20;;;34.50;36.10;;;;;;10475642;28;20198;-69
2022/05/25 07:30:12;;;;;;;3.10;1.10;;;35.30;34.20;;;;;;10477719;28;20172;-70
2022/05/25 07:35:16;;;;;;;1.47;0.90;;;35.80;34.10;;;;;;10472737;28;20195;-71
2022/05/25 07:40:25;;;;;;;1.87;1.00;;;34.70;34.10;;;;;;10469085;28;20561;-71
2022/05/25 07:45:27;;;;;;;2.47;1.00;;;34.90;35.30;;;;;;10474623;28;20300;-71
2022/05/25 07:50:28;;;;;;;3.60;1.10;;;36.10;32.90;;;;;;10468997;28;20208;-70
2022/05/25 07:55:29;;;;;;;4.20;1.20;;;37.00;32.10;;;;;;10490346;28;20293;-71
2022/05/25 08:00:32;;;;;;;3.03;0.93;;;37.40;31.60;;;;;;10468527;28;20325;-71
2022/05/25 08:05:44;;;;;;;2.67;1.10;;;37.70;30.40;;;;;;10476960;28;20431;-71
2022/05/25 08:10:51;;;;;;;1.23;0.97;;;38.10;30.00;;;;;;10467753;28;20228;-71
2022/05/25 08:15:52;;;;;;;1.07;0.90;;;37.90;29.60;;;;;;10459929;28;20223;-71
2022/05/25 08:20:52;;;;;;;2.70;0.90;;;37.20;29.80;;;;;;10479438;28;20227;-70
2022/05/25 08:25:53;;;;;;;1.10;0.70;;;37.50;29.40;;;;;;10465526;28;20291;-70
2022/05/25 08:30:54;;;;;;;0.90;0.70;;;38.30;29.40;;;;;;10466363;28;20231;-70
2022/05/25 08:35:54;;;;;;;2.33;0.70;;;38.60;28.70;;;;;;10472388;28;20215;-69
2022/05/25 08:40:56;;;;;;;2.20;1.10;;;39.30;28.00;;;;;;10467836;28;20231;-71
2022/05/25 08:46:03;;;;;;;2.17;0.67;;;39.00;27.60;;;;;;10473219;28;20231;-71
2022/05/25 08:51:10;;;;;;;2.67;0.80;;;39.40;27.10;;;;;;10468729;28;20710;-75
2022/05/25 08:56:26;;;;;;;2.13;0.90;;;39.80;26.60;;;;;;10460079;28;20235;-70
2022/05/25 09:01:57;;;;;;;1.00;0.73;;;39.20;26.70;;;;;;10466677;28;20215;-71
2022/05/25 09:07:32;;;;;;;2.17;0.73;;;39.10;26.60;;;;;;10457790;28;20589;-71
2022/05/25 09:12:49;;;;;;;2.90;0.83;;;37.90;27.30;;;;;;10465110;28;20245;-71
2022/05/25 09:17:58;;;;;;;1.80;0.60;;;37.40;27.10;;;;;;10440843;28;20259;-70
2022/05/25 09:22:59;;;;;;;0.70;0.40;;;36.10;28.70;;;;;;10469485;28;20224;-70
2022/05/25 09:28:12;;;;;;;0.80;0.40;;;38.60;27.20;;;;;;10465452;28;20223;-70
2022/05/25 09:33:15;;;;;;;1.60;0.40;;;37.50;27.00;;;;;;10469069;28;20220;-70
2022/05/25 09:38:43;;;;;;;2.37;0.57;;;37.60;27.50;;;;;;10468439;28;20227;-70
2022/05/25 09:43:44;;;;;;;3.90;0.50;;;34.60;29.60;;;;;;10465681;28;20312;-70
2022/05/25 09:48:52;;;;;;;1.40;0.73;;;32.30;32.20;;;;;;10465306;28;20778;-69
2022/05/25 09:53:58;;;;;;;1.47;0.70;;;32.90;32.70;;;;;;10434381;28;20226;-71
2022/05/25 09:59:14;;;;;;;2.10;0.80;;;32.30;32.00;;;;;;10470502;28;20234;-71
2022/05/25 10:04:33;;;;;;;1.40;0.63;;;32.30;33.00;;;;;;10469533;28;20296;-72
2022/05/25 10:09:44;;;;;;;3.40;0.80;;;35.10;30.00;;;;;;10481882;28;20744;-71
2022/05/25 10:15:01;;;;;;;2.63;0.70;;;34.70;29.30;;;;;;10472668;28;20633;-71
2022/05/25 10:20:05;;;;;;;1.13;0.60;;;34.70;28.40;;;;;;10472319;28;20220;-70
2022/05/25 10:25:12;;;;;;;0.77;0.50;;;32.70;30.40;;;;;;10466775;28;20223;-70
2022/05/25 10:41:37;;;;;;;0.67;0.50;;;37.50;26.70;;;;;;10467822;28;20314;-71
2022/05/25 10:46:24;;;;;;;2.00;0.50;;;36.70;26.90;;;;;;10478854;28;20309;-71
2022/05/25 10:51:37;;;;;;;3.27;0.60;;;34.50;29.30;;;;;;10477211;28;20215;-70
2022/05/25 10:57:04;;;;;;;1.23;0.50;;;36.20;28.50;;;;;;10465440;28;20223;-71
2022/05/25 11:02:20;;;;;;;4.23;0.60;;;37.90;27.00;;;;;;10467651;28;20215;-71
2022/05/25 11:07:35;;;;;;;1.10;0.50;;;38.70;25.90;;;;;;10473917;28;20281;-70
2022/05/25 11:12:43;;;;;;;3.00;0.70;;;39.30;25.90;;;;;;10470895;28;20330;-71
2022/05/25 11:18:16;;;;;;;0.57;0.40;;;38.40;25.20;;;;;;10478818;28;20231;-70
2022/05/25 11:23:29;;;;;;;1.90;0.47;;;37.70;26.00;;;;;;10470947;28;20219;-71
2022/05/25 11:28:54;;;;;;;1.00;0.50;;;36.60;27.30;;;;;;10469097;28;20227;-69
2022/05/25 11:34:41;;;;;;;1.50;0.50;;;37.00;27.30;;;;;;10493008;28;20215;-70
2022/05/25 11:39:55;;;;;;;1.87;0.60;;;35.90;27.60;;;;;;10449109;28;20223;-69
2022/05/25 11:45:29;;;;;;;3.07;0.80;;;32.70;30.20;;;;;;10479084;28;20307;-71
2022/05/25 11:51:02;;;;;;;6.57;0.87;;;30.40;33.10;;;;;;10456527;28;20203;-69
2022/05/25 11:56:51;;;;;;;1.83;0.60;;;29.00;35.90;;;;;;10463219;28;20906;-70
2022/05/25 12:02:36;;;;;;;1.40;0.60;;;27.90;36.50;;;;;;10447055;28;20243;-69
2022/05/25 12:08:02;;;;;;;4.67;1.30;;;27.10;38.70;;;;;;10459834;28;20218;-70
2022/05/25 12:13:29;;;;;;;2.20;0.43;;;27.10;38.00;;;;;;10464797;28;20309;-70
2022/05/25 12:18:38;;;;;;;2.00;0.80;;;26.90;37.10;;;;;;10469434;28;20511;-69
2022/05/25 12:23:44;;;;;;;2.50;0.73;;;26.60;37.10;;;;;;10475942;28;20307;-71
2022/05/25 12:28:47;;;;;;;4.37;0.77;;;26.70;37.90;;;;;;10476651;28;20738;-70
2022/05/25 12:33:49;;;;;;;2.73;0.70;;;26.80;35.80;;;;;;10450985;28;20681;-69
2022/05/25 12:38:53;;;;;;;1.23;0.57;;;26.80;37.20;;;;;;10473221;28;20217;-70
2022/05/25 12:44:00;;;;;;;2.87;0.60;;;26.70;37.10;;;;;;10468901;28;20237;-70
2022/05/25 12:49:04;;;;;;;2.20;0.50;;;26.40;37.70;;;;;;10473004;28;20217;-70
2022/05/25 12:54:41;;;;;;;0.70;0.47;;;26.40;37.50;;;;;;10466612;28;20222;-70
2022/05/25 12:59:42;;;;;;;1.43;0.60;;;26.40;37.70;;;;;;10459202;28;20875;-70
2022/05/25 13:04:47;;;;;;;1.43;0.40;;;26.20;36.20;;;;;;10473875;28;20271;-69
2022/05/25 13:09:49;;;;;;;3.37;1.00;;;25.80;37.10;;;;;;10457509;28;20225;-69
2022/05/25 13:14:49;;;;;;;2.00;0.83;;;25.60;38.90;;;;;;10466297;28;20224;-69
2022/05/25 13:19:50;;;;;;;1.83;0.90;;;25.50;39.10;;;;;;10489338;28;20227;-69
2022/05/25 13:25:14;;;;;;;1.60;0.60;;;25.50;40.50;;;;;;10466106;28;20644;-70
2022/05/25 13:30:39;;;;;;;0.90;0.50;;;25.40;38.20;;;;;;10465486;28;20234;-70
2022/05/25 13:35:54;;;;;;;4.93;0.70;;;24.80;38.00;;;;;;10463726;28;20230;-70
2022/05/25 13:41:15;;;;;;;1.07;0.90;;;24.50;40.00;;;;;;10459578;28;20231;-69
2022/05/25 13:46:32;;;;;;;4.33;1.10;;;24.90;40.00;;;;;;10468905;28;20277;-70
2022/05/25 13:51:38;;;;;;;3.00;0.70;;;24.70;40.90;;;;;;10479684;28;20226;-69
2022/05/25 13:56:38;;;;;;;5.87;0.90;;;24.70;40.70;;;;;;10480621;28;20218;-70
2022/05/25 14:01:39;;;;;;;1.00;0.43;;;25.00;39.90;;;;;;10477717;28;20215;-70
2022/05/25 14:06:42;;;;;;;2.13;0.57;;;25.00;39.70;;;;;;10485393;28;20242;-70
2022/05/25 14:11:52;;;;;;;0.80;0.53;;;24.80;39.60;;;;;;10482049;28;20589;-69
2022/05/25 14:16:55;;;;;;;2.47;0.60;;;24.80;39.70;;;;;;10471363;28;20231;-69
2022/05/25 14:22:01;;;;;;;1.87;0.67;;;24.90;39.10;;;;;;10484723;28;20219;-69
2022/05/25 14:27:06;;;;;;;2.00;0.80;;;24.30;40.00;;;;;;10469940;28;20245;-69
2022/05/25 14:32:24;;;;;;;2.77;1.00;;;24.10;41.30;;;;;;10481229;28;20698;-70
2022/05/25 14:37:28;;;;;;;1.90;0.70;;;24.50;42.00;;;;;;10479404;28;20733;-69
2022/05/25 14:42:29;;;;;;;1.90;0.73;;;24.60;40.70;;;;;;10478985;28;20215;-69
2022/05/25 14:47:57;;;;;;;0.97;0.53;;;24.60;40.80;;;;;;10478643;28;20242;-69
2022/05/25 14:53:09;;;;;;;1.30;0.93;;;24.50;40.50;;;;;;10465943;28;20326;-70
2022/05/25 14:58:19;;;;;;;2.30;1.60;;;24.30;41.20;;;;;;10476621;28;20235;-69
2022/05/25 15:03:37;;;;;;;12.50;1.07;;;24.30;41.10;;;;;;10475599;28;20259;-69
2022/05/25 15:08:41;;;;;;;0.67;0.47;;;24.50;39.70;;;;;;10476517;28;20226;-70
2022/05/25 15:19:01;;;;;;;1.60;0.70;;;24.50;40.00;;;;;;10465371;28;20239;-70
2022/05/25 15:24:06;;;;;;;1.43;0.47;;;24.60;39.00;;;;;;10461848;28;20220;-72
2022/05/25 15:29:26;;;;;;;2.47;0.50;;;24.70;39.20;;;;;;10470060;28;20325;-71
2022/05/25 15:34:27;;;;;;;3.77;0.60;;;24.60;39.80;;;;;;10469326;28;20219;-72
2022/05/25 15:39:27;;;;;;;2.90;0.60;;;24.30;41.20;;;;;;10472443;28;20219;-70
2022/05/25 15:44:28;;;;;;;1.37;0.50;;;24.00;40.70;;;;;;10472433;28;20741;-71
2022/05/25 15:49:28;;;;;;;2.00;0.53;;;23.60;41.70;;;;;;10475147;28;20227;-70
2022/05/25 15:54:29;;;;;;;1.43;0.57;;;23.20;42.20;;;;;;10469531;28;20233;-72
2022/05/25 15:59:30;;;;;;;0.80;0.50;;;23.10;42.30;;;;;;10458376;28;20228;-70
2022/05/25 16:04:35;;;;;;;2.90;0.60;;;23.10;43.10;;;;;;10474779;28;20208;-70
2022/05/25 16:09:42;;;;;;;2.47;0.50;;;22.90;43.90;;;;;;10468379;28;20687;-69
2022/05/25 16:14:45;;;;;;;1.70;0.37;;;23.10;43.30;;;;;;10457326;28;20675;-69
2022/05/25 16:19:46;;;;;;;3.60;0.50;;;23.40;42.20;;;;;;10471505;28;20325;-69
2022/05/25 16:24:47;;;;;;;0.77;0.43;;;23.30;41.90;;;;;;10455336;28;20208;-71
2022/05/25 16:29:48;;;;;;;1.30;0.47;;;23.10;42.80;;;;;;10458668;28;20219;-71
2022/05/25 16:34:49;;;;;;;1.13;0.67;;;23.20;43.30;;;;;;10453744;28;20378;-70
2022/05/25 16:39:50;;;;;;;2.20;0.60;;;23.20;42.70;;;;;;10473679;28;20235;-70
2022/05/25 16:44:56;;;;;;;2.43;0.97;;;23.10;43.40;;;;;;10467854;28;20231;-70
2022/05/25 16:49:57;;;;;;;2.87;0.50;;;23.10;43.50;;;;;;10462933;28;20235;-69
2022/05/25 16:55:02;;;;;;;2.10;0.73;;;23.00;43.20;;;;;;10463531;28;20219;-70
2022/05/25 17:00:07;;;;;;;5.77;0.70;;;22.80;44.00;;;;;;10472081;28;20227;-70
2022/05/25 17:05:08;;;;;;;0.90;0.40;;;22.60;44.90;;;;;;10457089;28;20216;-70
2022/05/25 17:10:12;;;;;;;3.70;0.90;;;22.40;45.70;;;;;;10461614;28;20183;-69
2022/05/25 17:15:13;;;;;;;4.00;0.80;;;22.30;45.80;;;;;;10472923;28;20191;-70
2022/05/25 17:20:32;;;;;;;3.20;0.90;;;22.10;46.20;;;;;;10463349;28;20212;-69
2022/05/25 17:25:33;;;;;;;3.23;0.70;;;21.90;46.20;;;;;;10458171;28;20706;-70
2022/05/25 17:30:36;;;;;;;2.00;0.73;;;21.80;46.60;;;;;;10471083;28;20218;-70
2022/05/25 17:46:15;;;;;;;1.87;0.63;;;21.60;48.10;;;;;;10468901;28;20228;-69
2022/05/25 17:51:16;;;;;;;2.97;0.80;;;21.50;48.70;;;;;;10462987;28;20581;-70
2022/05/25 17:56:17;;;;;;;2.43;0.90;;;21.50;48.20;;;;;;10461263;28;20216;-70
2022/05/25 18:01:17;;;;;;;2.40;0.70;;;21.40;47.80;;;;;;10470258;28;20686;-70
2022/05/25 18:06:18;;;;;;;3.70;1.10;;;21.30;48.00;;;;;;10457060;28;20742;-70
2022/05/25 18:11:18;;;;;;;1.60;0.80;;;21.20;48.70;;;;;;10467508;28;20215;-69
2022/05/25 18:16:20;;;;;;;2.90;0.90;;;21.10;48.70;;;;;;10468132;28;20226;-70
2022/05/25 18:21:20;;;;;;;2.80;1.13;;;21.00;49.40;;;;;;10460162;28;20284;-70
2022/05/25 18:26:21;;;;;;;4.03;1.20;;;20.90;49.70;;;;;;10463840;28;20284;-70
2022/05/25 18:31:21;;;;;;;4.67;1.10;;;20.70;50.20;;;;;;10461076;28;20230;-69
2022/05/25 18:36:28;;;;;;;3.30;0.83;;;20.60;50.30;;;;;;10454999;28;20354;-69
2022/05/25 18:41:29;;;;;;;1.63;0.80;;;20.50;50.60;;;;;;10463853;28;20787;-68
2022/05/25 18:46:29;;;;;;;3.40;0.77;;;20.30;51.10;;;;;;10479250;28;20334;-71
2022/05/25 18:51:33;;;;;;;2.93;0.70;;;20.20;51.70;;;;;;10479179;28;20219;-70
2022/05/25 18:56:34;;;;;;;2.10;0.80;;;20.00;51.80;;;;;;10474034;28;20289;-70
2022/05/25 19:01:35;;;;;;;1.90;0.63;;;19.90;52.10;;;;;;10473487;28;20327;-70
2022/05/25 19:06:35;;;;;;;1.60;0.70;;;19.80;52.60;;;;;;10454997;28;20219;-71
2022/05/25 19:11:36;;;;;;;1.03;0.53;;;19.60;53.20;;;;;;10464100;28;20223;-70
2022/05/25 19:16:37;;;;;;;1.87;0.80;;;19.40;53.50;;;;;;10471206;28;20786;-71
2022/05/25 19:21:54;;;;;;;3.47;0.63;;;19.30;54.10;;;;;;10484680;28;20211;-70
2022/05/25 19:26:59;;;;;;;1.97;0.70;;;19.20;54.50;;;;;;10467784;28;20219;-69
2022/05/25 19:32:01;;;;;;;3.20;1.00;;;19.10;55.00;;;;;;10476433;28;20211;-70
2022/05/25 19:37:02;;;;;;;1.67;0.50;;;19.00;55.20;;;;;;10466120;28;20255;-69
2022/05/25 19:42:09;;;;;;;3.50;0.80;;;18.90;55.40;;;;;;10500002;28;20213;-70
2022/05/25 19:47:10;;;;;;;1.00;0.83;;;18.90;56.10;;;;;;10466046;28;20222;-71
2022/05/25 19:52:11;;;;;;;0.83;0.70;;;18.80;56.50;;;;;;10465848;28;20601;-70
2022/05/25 19:57:13;;;;;;;0.73;0.57;;;18.80;56.80;;;;;;10464252;28;20230;-70
2022/05/25 20:02:13;;;;;;;2.77;1.40;;;18.80;56.90;;;;;;10465320;28;20307;-71
2022/05/25 20:07:15;;;;;;;1.27;1.00;;;18.90;57.40;;;;;;10473624;28;20290;-71
2022/05/25 20:12:15;;;;;;;2.13;0.60;;;18.80;57.50;;;;;;10477643;28;20286;-70
2022/05/25 20:17:16;;;;;;;0.90;0.50;;;18.80;57.90;;;;;;10472235;28;20645;-71
2022/05/25 20:22:19;;;;;;;0.97;0.60;;;18.80;58.20;;;;;;10498747;28;20903;-71
2022/05/25 20:27:19;;;;;;;2.00;0.77;;;18.80;58.40;;;;;;10465226;28;20223;-70
2022/05/25 20:32:20;;;;;;;1.80;0.80;;;18.90;58.40;;;;;;10456174;28;20321;-69
2022/05/25 20:37:21;;;;;;;1.60;0.70;;;19.00;58.40;;;;;;10471873;28;20232;-69
2022/05/25 20:42:24;;;;;;;1.17;0.70;;;19.00;58.30;;;;;;10474106;28;20689;-70
2022/05/25 20:47:27;;;;;;;2.23;0.70;;;19.00;58.60;;;;;;10477756;28;20219;-69
2022/05/25 20:52:28;;;;;;;2.50;0.90;;;18.90;59.10;;;;;;10463016;28;20219;-69
2022/05/25 20:57:29;;;;;;;1.87;0.70;;;18.80;59.50;;;;;;10474157;28;20223;-69
2022/05/25 21:02:30;;;;;;;1.53;0.60;;;18.70;60.00;;;;;;10462912;28;20219;-69
2022/05/25 21:07:33;;;;;;;1.47;0.70;;;18.70;60.80;;;;;;10465318;28;20678;-69
2022/05/25 21:12:34;;;;;;;0.77;0.50;;;18.60;61.20;;;;;;10459080;28;20275;-68
2022/05/25 21:17:35;;;;;;;3.30;0.70;;;18.50;61.80;;;;;;10463234;28;20234;-69
2022/05/25 21:22:37;;;;;;;1.00;0.57;;;18.50;62.40;;;;;;10474606;28;20299;-69
2022/05/25 21:27:37;;;;;;;1.60;0.60;;;18.40;62.80;;;;;;10459856;28;20227;-69
2022/05/25 21:32:50;;;;;;;1.57;0.60;;;18.40;63.30;;;;;;10463061;28;20268;-71
2022/05/25 21:37:50;;;;;;;1.53;0.70;;;18.30;64.80;;;;;;10474893;28;20227;-71
2022/05/25 21:42:51;;;;;;;0.80;0.60;;;18.30;64.50;;;;;;10468895;28;20207;-70
2022/05/25 21:53:12;;;;;;;1.67;1.00;;;18.00;65.90;;;;;;10465753;28;20309;-71
2022/05/25 21:58:13;;;;;;;1.13;0.73;;;18.00;66.30;;;;;;10461232;28;20727;-72
2022/05/25 22:03:14;;;;;;;1.10;0.60;;;17.90;66.40;;;;;;10454819;28;20245;-71
2022/05/25 22:08:15;;;;;;;3.17;0.77;;;17.90;66.40;;;;;;10459354;28;20222;-71
2022/05/25 22:13:16;;;;;;;2.60;0.57;;;17.90;66.70;;;;;;10470207;28;20230;-71
2022/05/25 22:18:17;;;;;;;2.23;0.60;;;17.90;66.80;;;;;;10462807;28;20727;-72
2022/05/25 22:23:17;;;;;;;1.27;0.60;;;17.90;67.00;;;;;;10477391;28;20218;-71
2022/05/25 22:28:18;;;;;;;0.73;0.60;;;17.90;67.30;;;;;;10471027;28;20222;-71
2022/05/25 22:33:19;;;;;;;1.57;0.70;;;17.90;67.50;;;;;;10482568;28;20249;-70
2022/05/25 22:38:19;;;;;;;2.10;0.73;;;17.90;67.90;;;;;;10473050;28;20235;-72
2022/05/25 22:43:20;;;;;;;1.90;0.70;;;17.90;68.50;;;;;;10476946;28;20697;-72
2022/05/25 22:48:21;;;;;;;1.13;0.80;;;17.90;68.80;;;;;;10471407;28;20290;-72
2022/05/25 22:53:22;;;;;;;2.87;0.83;;;17.90;69.10;;;;;;10473624;28;20226;-71
2022/05/25 22:58:23;;;;;;;3.67;0.90;;;17.80;69.40;;;;;;10478065;28;20228;-71
2022/05/25 23:03:23;;;;;;;1.73;0.90;;;17.80;69.70;;;;;;10476595;28;20218;-72
2022/05/25 23:08:24;;;;;;;3.03;0.87;;;17.80;70.00;;;;;;10477538;28;20226;-72
2022/05/25 23:13:26;;;;;;;1.70;1.00;;;17.80;70.00;;;;;;10473580;28;20226;-72
2022/05/25 23:18:26;;;;;;;3.20;0.90;;;17.70;70.70;;;;;;10472782;28;20707;-72
2022/05/25 23:23:28;;;;;;;1.63;0.80;;;17.70;71.00;;;;;;10465320;28;20218;-71
2022/05/25 23:33:48;;;;;;;2.30;1.20;;;17.70;71.60;;;;;;10465021;28;20222;-72
2022/05/25 23:38:49;;;;;;;2.50;1.03;;;17.70;71.50;;;;;;10480352;28;20298;-71
2022/05/25 23:43:52;;;;;;;1.07;0.80;;;17.70;71.60;;;;;;10471350;28;20265;-71
2022/05/25 23:48:56;;;;;;;2.67;1.20;;;17.60;71.80;;;;;;10478972;28;20648;-71
2022/05/25 23:53:57;;;;;;;1.20;0.70;;;17.60;71.80;;;;;;10471909;28;20219;-71
2022/05/25 23:59:03;;;;;;;3.67;0.70;;;17.60;71.90;;;;;;10478172;28;20234;-71
